13:22
Airports
History
Links
Donate
Help keep this website running!
PayPal
Bitcoin
This page is community maintained. The information is intended for PC simulator navigation or reference.
Always use approved charts for navigation.
38F
Triangle Ranch
Triangle Ranch (38F)
Texas, United States
(U)
Lat/Lng:34° 1' 45.29" N / 100° 4' 6.38" W
34.029246 / -100.068439
Elevation:1757'ft / 536mMSL
ID / ICAO:38F
Runways:1
Longest:15-33
Asphalt 1,159m / 3,802ft
Nearby Weather12:53 GMT 2018-01-20
Nearby weather at KCDS, Childress Muni located 30.6 nautical miles from 38F
Altimeter: 29.78
Visibility: 10.0 statute miles
Wind: 8 knots (from 180°)
Temp: 1°c / 34°f
Humidity: 69.2%

METAR: KCDS 201253Z AUTO 18008KT 10SM CLR 01/M04 A2978 RMK AO2 SLP085 T00111044

(Powered by phpweather)
Nearby VORs <50NM
Nearby NDBs
Runway 15 / 33
Dimensions:1158.7 x 24.4m 3802' x 80'ft
Surface:Asphalt
Runway 15 [A]Runway 33 [B]
Heading:157°TH 337°TH
Lat:
Lng:
34° 2' 2.68"N
100° 4' 14.86"W
34° 1' 27.89"N
100° 3' 57.9"W
User Notes and Comments
34° 1' 45.29" N / 100° 4' 6.38" W
Distance To
Airport ID:
Nearby Airports
(U) Dan E Richards Muni 12.2 NM
3F6 W 269°
(R) Lowrance Ranch 18.5 NM
26TX S 170°
(U) FOARD CO 20.7 NM
8F4 E 99°
(R) J Y Ranch-r B Masterson Iii Es 22.1 NM
1TX2 SSW 192°
(U) Quanah Muni 24.6 NM
F01 NE 45°
(U) Childress Muni 30.6 NM
KCDS ( WX ) NNW 335°
(R) 6666 Ranch 31.2 NM
6TE6 SSW 210°
VFR Chart
Flight Planning at SkyVector.com